Terminal Aerodrome Forecast
Issued by NWS

Home | Current Version | Previous Version | Text Only | Print | Product List | Glossary On
Versions: 1 2 3 4 5 6 7 8 9 10 11 12 13 14 15 16 17 18 19 20 21 22 23 24
000
FTUS45 KPSR 040522
TAFSDL
TAF
KSDL 040522Z 0406/0506 14012G20KT P6SM VCTS BKN070CB WS020/24025KT
     FM040900 VRB05KT P6SM -SHRA SCT025 BKN050 OVC070
     FM041600 18004KT P6SM SCT050 BKN070 OVC100
     FM042200 27010G18KT P6SM VCTS BKN070CB
     FM050000 30008KT P6SM -TSRA BKN050CB=

USA.gov is the U.S. government's official web portal to all federal, state and local government web resources and services.